This is the latest recevied weather packets stored in our database for station/object Kisslegg. If no packets are shown the sender has not sent any weather packets the latest 10 day(s).
| Time | Temp. | Humidity | Pressure | Rain* | Wind** | Luminosity | Snow |
|---|---|---|---|---|---|---|---|
| 1787709729 | 16.11° C | 93% | 1015.1 hPa | 0 mm | - | - | - |
| 1787707930 | 16.11° C | 93% | 1015 hPa | 0 mm | - | - | - |
| 1787706129 | 16.11° C | 93% | 1014.7 hPa | 0 mm | - | - | - |
| 1787704332 | 16.11° C | 91% | 1014.8 hPa | 0 mm | - | - | - |
| 1787702531 | 16.67° C | 91% | 1014.7 hPa | 0 mm | - | - | - |
| 1787700730 | 16.67° C | 91% | 1014.6 hPa | 0 mm | - | - | - |
| 1787698933 | 17.22° C | 91% | 1014.6 hPa | 0 mm | - | - | - |
| 1787697131 | 17.22° C | 91% | 1014.5 hPa | 0 mm | - | - | - |
| 1787695331 | 17.22° C | 91% | 1014.6 hPa | 0 mm | - | - | - |
| 1787693532 | 17.22° C | 91% | 1014.6 hPa | 0.76 mm | - | - | - |
| 1787691731 | 17.78° C | 91% | 1014.5 hPa | 0.51 mm | - | - | - |
| 1787689931 | 17.78° C | 91% | 1014.5 hPa | 0.51 mm | - | - | - |
| 1787688130 | 17.78° C | 90% | 1014.4 hPa | 0.51 mm | - | - | - |
| 1787686331 | 17.78° C | 88% | 1014.5 hPa | 0.51 mm | - | - | - |
| 1787684531 | 18.33° C | 88% | 1014.1 hPa | 0.51 mm | - | - | - |
| 1787682731 | 18.33° C | 87% | 1014 hPa | 0.51 mm | - | - | - |
| 1787680931 | 19.44° C | 82% | 1013.8 hPa | 0.51 mm | - | - | - |
| 1787679131 | 20° C | 81% | 1013.4 hPa | 0.51 mm | - | - | - |
| 1787677331 | 20.56° C | 80% | 1013.4 hPa | 0.51 mm | - | - | - |
| 1787675531 | 21.67° C | 75% | 1013.1 hPa | 0.51 mm | - | - | - |
| 1787673731 | 21.67° C | 75% | 1013.1 hPa | 0.51 mm | - | - | - |
| 1787671933 | 20.56° C | 81% | 1013.1 hPa | 0.51 mm | - | - | - |
| 1787670130 | 19.44° C | 83% | 1013.3 hPa | 0.51 mm | - | - | - |
| 1787668332 | 19.44° C | 83% | 1013.2 hPa | 0.51 mm | - | - | - |
| 1787666530 | 19.44° C | 82% | 1012.8 hPa | 0.51 mm | - | - | - |
* Rain since midnight (hover to see other rain measurements)
** Current wind speed in m/s (hover to see current wind gust speed)